createdAt,value
2022-11-20T00:01:07.208Z,19.65
2022-11-20T00:03:33.933Z,18.70
2022-11-20T00:06:02.138Z,18.85
2022-11-20T00:08:28.503Z,20.67
2022-11-20T00:10:55.282Z,19.95
2022-11-20T00:13:21.681Z,19.15
2022-11-20T00:15:48.061Z,18.58
2022-11-20T00:18:14.429Z,19.60
2022-11-20T00:20:40.748Z,19.38
2022-11-20T00:23:08.070Z,18.45
2022-11-20T00:25:35.590Z,20.20
2022-11-20T00:28:01.917Z,18.63
2022-11-20T00:30:28.305Z,19.70
2022-11-20T00:32:57.515Z,19.75
2022-11-20T00:35:23.861Z,18.83
2022-11-20T00:37:50.271Z,19.40
2022-11-20T00:40:16.607Z,19.30
2022-11-20T00:42:42.950Z,18.90
2022-11-20T00:45:09.395Z,18.90
2022-11-20T00:47:35.796Z,19.13
2022-11-20T00:50:02.177Z,18.95
2022-11-20T00:52:28.504Z,19.85
2022-11-20T00:54:54.854Z,19.77
2022-11-20T00:57:21.294Z,19.02
2022-11-20T00:59:47.664Z,18.85
2022-11-20T01:02:14.093Z,19.52
2022-11-20T01:04:40.466Z,19.00
2022-11-20T01:07:06.925Z,19.33
2022-11-20T01:09:33.496Z,18.38
2022-11-20T01:12:00.068Z,20.38
2022-11-20T01:14:26.547Z,19.02
2022-11-20T01:16:53.342Z,21.00
2022-11-20T01:19:25.088Z,20.38
2022-11-20T01:21:53.786Z,19.15
2022-11-20T01:24:21.926Z,19.90
2022-11-20T01:26:50.611Z,19.60
2022-11-20T01:29:21.611Z,19.42
2022-11-20T01:31:48.567Z,19.63
2022-11-20T01:34:17.303Z,20.55
2022-11-20T01:36:44.317Z,18.33
2022-11-20T01:39:13.938Z,19.17
2022-11-20T01:41:58.979Z,20.60
2022-11-20T01:44:54.516Z,19.95
2022-11-20T01:47:26.494Z,20.00
2022-11-20T01:50:24.200Z,19.80
2022-11-20T01:52:56.051Z,20.88
2022-11-20T01:55:27.666Z,20.92
2022-11-20T01:57:54.015Z,20.27
2022-11-20T02:00:21.474Z,20.58
2022-11-20T02:03:07.911Z,20.83
2022-11-20T02:05:40.719Z,21.63
2022-11-20T02:08:07.811Z,20.45
2022-11-20T02:10:34.391Z,21.95
2022-11-20T02:13:24.470Z,22.08
2022-11-20T02:15:51.470Z,22.70
2022-11-20T02:18:22.326Z,21.23
2022-11-20T02:20:53.096Z,21.73
2022-11-20T02:23:28.876Z,20.13
2022-11-20T02:25:55.684Z,22.85
2022-11-20T02:28:22.110Z,20.63
2022-11-20T02:30:48.550Z,20.75
2022-11-20T02:33:15.164Z,21.67
2022-11-20T02:35:44.517Z,21.20
2022-11-20T02:38:11.253Z,21.17
2022-11-20T02:40:37.673Z,20.83
2022-11-20T02:43:06.836Z,21.90
2022-11-20T02:45:33.368Z,22.60
2022-11-20T02:47:59.875Z,20.92
2022-11-20T02:50:28.648Z,21.30
2022-11-20T02:52:57.778Z,21.67
2022-11-20T02:55:24.599Z,22.05
2022-11-20T02:57:51.016Z,23.00
2022-11-20T03:00:17.672Z,22.77
2022-11-20T03:02:44.093Z,23.58
2022-11-20T03:05:10.589Z,21.63
2022-11-20T03:07:37.050Z,22.35
2022-11-20T03:10:05.201Z,23.27
2022-11-20T03:12:32.281Z,21.92
2022-11-20T03:14:58.723Z,22.98
2022-11-20T03:17:25.256Z,22.58
2022-11-20T03:19:51.709Z,22.40
2022-11-20T03:22:18.073Z,22.70
2022-11-20T03:24:44.600Z,22.35
2022-11-20T03:27:10.986Z,23.00
2022-11-20T03:29:37.314Z,21.95
2022-11-20T03:32:03.776Z,22.00
2022-11-20T03:34:30.343Z,23.27
2022-11-20T03:36:56.804Z,21.67
2022-11-20T03:39:23.822Z,23.65
2022-11-20T03:41:50.666Z,22.73
2022-11-20T03:44:17.037Z,21.77
2022-11-20T03:46:43.579Z,23.02
2022-11-20T03:49:10.145Z,23.45
2022-11-20T03:51:36.965Z,21.73
2022-11-20T03:54:06.550Z,23.15
2022-11-20T03:56:35.444Z,23.17
2022-11-20T03:59:01.923Z,22.63
2022-11-20T04:01:31.630Z,22.98
2022-11-20T04:03:58.519Z,23.58
2022-11-20T04:06:28.430Z,22.35
2022-11-20T04:08:58.851Z,20.65
2022-11-20T04:11:30.251Z,21.90
2022-11-20T04:14:01.689Z,20.75
2022-11-20T04:16:30.786Z,21.88
2022-11-20T04:18:59.471Z,21.95
2022-11-20T04:21:26.694Z,22.33
2022-11-20T04:23:53.825Z,23.20
2022-11-20T04:26:21.147Z,22.70
2022-11-20T04:28:47.529Z,21.48
2022-11-20T04:31:16.274Z,22.35
2022-11-20T04:33:43.171Z,23.83
2022-11-20T04:36:15.664Z,23.27
2022-11-20T04:38:42.724Z,23.50
2022-11-20T04:41:13.237Z,23.70
2022-11-20T04:43:39.599Z,22.23
2022-11-20T04:46:06.144Z,23.08
2022-11-20T04:48:32.653Z,22.63
2022-11-20T04:51:03.962Z,24.77
2022-11-20T04:53:30.604Z,23.08
2022-11-20T04:56:04.603Z,22.95
2022-11-20T04:58:31.222Z,23.50
2022-11-20T05:01:05.440Z,23.77
2022-11-20T05:03:32.300Z,22.55
2022-11-20T05:06:06.049Z,21.75
2022-11-20T05:08:33.593Z,22.10
2022-11-20T05:11:03.979Z,22.60
2022-11-20T05:13:30.465Z,22.63
2022-11-20T05:16:02.392Z,22.55
2022-11-20T05:18:29.036Z,23.80
2022-11-20T05:20:57.198Z,23.65
2022-11-20T05:23:24.094Z,22.25
2022-11-20T05:25:58.546Z,22.23
2022-11-20T05:28:25.998Z,22.25
2022-11-20T05:30:52.687Z,21.80
2022-11-20T05:33:19.125Z,20.63
2022-11-20T05:35:46.139Z,21.55
2022-11-20T05:38:12.608Z,21.42
2022-11-20T05:40:38.997Z,22.55
2022-11-20T05:43:05.422Z,21.73
2022-11-20T05:45:31.868Z,22.48
2022-11-20T05:48:01.340Z,23.15
2022-11-20T05:50:29.055Z,22.55
2022-11-20T05:52:55.602Z,21.13
2022-11-20T05:55:22.078Z,21.50
2022-11-20T05:57:48.472Z,22.02
2022-11-20T06:00:15.441Z,22.98
2022-11-20T06:02:41.787Z,22.80
2022-11-20T06:05:08.665Z,23.65
2022-11-20T06:07:35.055Z,22.90
2022-11-20T06:10:01.553Z,22.73
2022-11-20T06:12:27.920Z,22.63
2022-11-20T06:14:54.270Z,23.48
2022-11-20T06:17:20.617Z,24.42
2022-11-20T06:19:46.988Z,22.30
2022-11-20T06:22:13.356Z,22.95
2022-11-20T06:24:39.740Z,23.92
2022-11-20T06:27:06.122Z,22.20
2022-11-20T06:29:34.052Z,24.38
2022-11-20T06:32:00.715Z,23.75
2022-11-20T06:34:27.130Z,25.38
2022-11-20T06:36:53.498Z,24.90
2022-11-20T06:39:20.377Z,26.58
2022-11-20T06:41:47.301Z,22.77
2022-11-20T06:44:13.701Z,24.38
2022-11-20T06:46:40.035Z,25.20
2022-11-20T06:49:06.760Z,26.35
2022-11-20T06:51:33.093Z,25.58
2022-11-20T06:53:59.530Z,25.77
2022-11-20T06:56:25.920Z,25.92
2022-11-20T06:58:52.230Z,26.23
2022-11-20T07:01:18.620Z,30.17
2022-11-20T07:03:46.352Z,34.83
2022-11-20T07:06:14.411Z,38.60
2022-11-20T07:08:40.789Z,40.28
2022-11-20T07:11:08.000Z,41.20
2022-11-20T07:13:34.580Z,40.72
2022-11-20T07:16:05.156Z,36.92
2022-11-20T07:18:31.818Z,32.75
2022-11-20T07:21:04.960Z,34.28
2022-11-20T07:23:31.284Z,32.07
2022-11-20T07:25:57.828Z,32.10
2022-11-20T07:28:24.159Z,30.80
2022-11-20T07:30:54.250Z,29.92
2022-11-20T07:33:21.160Z,33.50
2022-11-20T07:35:47.587Z,31.67
2022-11-20T07:38:13.981Z,28.48
2022-11-20T07:40:40.448Z,25.52
2022-11-20T07:43:06.864Z,25.83
2022-11-20T07:45:33.203Z,25.55
2022-11-20T07:47:59.586Z,26.02
2022-11-20T07:50:26.061Z,27.30
2022-11-20T07:52:53.334Z,26.38
2022-11-20T07:55:19.667Z,27.45
2022-11-20T07:57:45.996Z,26.05
2022-11-20T08:00:13.031Z,26.55
2022-11-20T08:02:42.868Z,25.13
2022-11-20T08:05:10.160Z,26.77
2022-11-20T08:07:40.925Z,28.58
2022-11-20T08:10:08.805Z,28.92
2022-11-20T08:12:53.575Z,27.38
2022-11-20T08:15:20.569Z,28.05
2022-11-20T08:18:02.308Z,26.88
2022-11-20T08:20:33.971Z,25.17
2022-11-20T08:23:06.564Z,28.90
2022-11-20T08:25:34.404Z,31.25
2022-11-20T08:28:11.528Z,30.48
2022-11-20T08:30:42.338Z,28.70
2022-11-20T08:33:10.085Z,29.65
2022-11-20T08:35:37.421Z,28.92
2022-11-20T08:38:05.088Z,26.10
2022-11-20T08:40:31.837Z,28.48
2022-11-20T08:42:58.216Z,28.88
2022-11-20T08:45:25.249Z,28.63
2022-11-20T08:47:53.723Z,28.38
2022-11-20T08:50:20.390Z,29.70
2022-11-20T08:52:46.762Z,30.98
2022-11-20T08:55:13.210Z,29.10
2022-11-20T08:57:39.933Z,30.80
2022-11-20T09:00:08.901Z,30.80
2022-11-20T09:02:35.577Z,32.17
2022-11-20T09:05:03.171Z,30.77
2022-11-20T09:07:30.407Z,31.05
2022-11-20T09:10:16.834Z,28.33
2022-11-20T09:12:43.166Z,28.58
2022-11-20T09:15:10.002Z,29.50
2022-11-20T09:17:36.366Z,30.92
2022-11-20T09:20:02.832Z,30.50
2022-11-20T09:22:29.218Z,31.65
2022-11-20T09:24:55.559Z,31.40
2022-11-20T09:27:22.496Z,30.90
2022-11-20T09:29:48.863Z,30.20
2022-11-20T09:32:15.185Z,31.88
2022-11-20T09:34:42.618Z,30.50
2022-11-20T09:37:09.021Z,31.63
2022-11-20T09:39:39.597Z,32.92
2022-11-20T09:42:18.326Z,32.88
2022-11-20T09:44:44.536Z,31.38
2022-11-20T09:47:34.928Z,31.75
2022-11-20T09:50:13.027Z,33.03
2022-11-20T09:53:01.647Z,39.28
2022-11-20T09:55:30.306Z,28.55
2022-11-20T09:57:57.813Z,31.33
2022-11-20T10:00:24.380Z,31.40
2022-11-20T10:03:03.732Z,30.25
2022-11-20T10:05:48.558Z,30.85
2022-11-20T10:08:32.790Z,29.00
2022-11-20T10:13:46.453Z,29.70
2022-11-20T10:16:31.258Z,30.52
2022-11-20T10:19:18.220Z,30.83
2022-11-20T10:22:09.169Z,30.73
2022-11-20T10:24:56.505Z,29.88
2022-11-20T10:27:32.084Z,31.05
2022-11-20T10:30:19.113Z,28.55
2022-11-20T10:32:53.199Z,28.73
2022-11-20T10:35:40.277Z,27.02
2022-11-20T10:38:13.024Z,26.77
2022-11-20T10:40:42.458Z,25.92
2022-11-20T10:43:25.609Z,24.48
2022-11-20T10:46:01.746Z,25.58
2022-11-20T10:48:29.129Z,28.65
2022-11-20T10:51:13.748Z,29.38
2022-11-20T10:54:22.918Z,31.27
2022-11-20T10:56:52.421Z,32.33
2022-11-20T10:59:39.851Z,32.20
2022-11-20T11:02:24.277Z,32.33
2022-11-20T11:04:52.571Z,33.17
2022-11-20T11:07:25.384Z,33.83
2022-11-20T11:09:54.364Z,32.85
2022-11-20T11:12:25.594Z,32.67
2022-11-20T11:14:54.768Z,33.95
2022-11-20T11:17:28.331Z,33.67
2022-11-20T11:20:16.956Z,33.65
2022-11-20T11:22:55.896Z,33.75
2022-11-20T11:25:29.779Z,32.10
2022-11-20T11:27:59.982Z,35.35
2022-11-20T11:30:27.758Z,33.45
2022-11-20T11:33:09.729Z,35.13
2022-11-20T11:35:49.713Z,36.08
2022-11-20T11:38:22.406Z,35.72
2022-11-20T11:40:48.833Z,35.03
2022-11-20T11:43:46.579Z,34.08
2022-11-20T11:46:28.086Z,35.50
2022-11-20T11:49:10.005Z,34.35
2022-11-20T11:52:02.700Z,35.15
2022-11-20T11:54:32.491Z,34.58
2022-11-20T11:57:04.817Z,34.85
2022-11-20T11:59:43.082Z,36.53
2022-11-20T12:02:23.294Z,32.38
2022-11-20T12:04:56.125Z,32.38
2022-11-20T12:07:47.431Z,33.08
2022-11-20T12:10:20.078Z,32.17
2022-11-20T12:12:51.247Z,31.33
2022-11-20T12:15:29.122Z,35.92
2022-11-20T12:17:55.606Z,29.75
2022-11-20T12:20:25.594Z,32.22
2022-11-20T12:23:43.622Z,30.45
2022-11-20T12:26:44.704Z,31.48
2022-11-20T12:29:20.441Z,30.70
2022-11-20T12:31:53.275Z,30.52
2022-11-20T12:34:45.167Z,30.80
2022-11-20T12:37:34.183Z,29.63
2022-11-20T12:40:13.082Z,30.30
2022-11-20T12:43:09.518Z,29.98
2022-11-20T12:46:04.245Z,29.63
2022-11-20T12:48:46.539Z,27.55
2022-11-20T12:51:47.142Z,26.63
2022-11-20T12:54:36.059Z,27.65
2022-11-20T12:57:11.568Z,27.20
2022-11-20T13:00:01.394Z,26.83
2022-11-20T13:02:53.793Z,27.17
2022-11-20T13:05:47.800Z,26.83
2022-11-20T13:08:34.562Z,26.33
2022-11-20T13:11:14.748Z,28.90
2022-11-20T13:13:47.010Z,26.70
2022-11-20T13:16:20.481Z,28.67
2022-11-20T13:18:47.164Z,28.85
2022-11-20T13:21:38.059Z,27.88
2022-11-20T13:24:07.538Z,28.73
2022-11-20T13:26:34.422Z,28.17
2022-11-20T13:29:17.428Z,30.10
2022-11-20T13:31:46.718Z,28.52
2022-11-20T13:34:22.707Z,27.75
2022-11-20T13:36:52.003Z,27.77
2022-11-20T13:39:35.685Z,27.20
2022-11-20T13:42:04.667Z,26.27
2022-11-20T13:44:38.714Z,26.02
2022-11-20T13:49:43.830Z,27.02
2022-11-20T13:52:45.189Z,28.75
2022-11-20T13:55:24.982Z,27.77
2022-11-20T13:58:22.051Z,28.90
2022-11-20T14:00:58.409Z,29.70
2022-11-20T14:03:58.566Z,30.90
2022-11-20T14:06:17.108Z,28.58
2022-11-20T14:08:47.149Z,27.23
2022-11-20T14:11:18.525Z,26.92
2022-11-20T14:14:00.281Z,26.90
2022-11-20T14:16:28.775Z,27.15
2022-11-20T14:18:56.476Z,27.13
2022-11-20T14:21:31.161Z,25.50
2022-11-20T14:24:07.957Z,26.58
2022-11-20T14:26:34.879Z,26.90
2022-11-20T14:29:01.274Z,27.58
2022-11-20T14:31:28.565Z,29.35
2022-11-20T14:33:55.370Z,26.70
2022-11-20T14:36:24.533Z,25.35
2022-11-20T14:38:52.376Z,26.48
2022-11-20T14:41:22.243Z,26.48
2022-11-20T14:43:52.151Z,27.10
2022-11-20T14:46:18.797Z,27.83
2022-11-20T14:48:50.385Z,26.95
2022-11-20T14:51:42.229Z,23.77
2022-11-20T14:54:12.968Z,25.05
2022-11-20T14:56:39.380Z,22.17
2022-11-20T14:59:05.818Z,23.60
2022-11-20T15:01:34.286Z,23.85
2022-11-20T15:04:03.016Z,23.35
2022-11-20T15:06:30.558Z,24.95
2022-11-20T15:08:57.173Z,25.23
2022-11-20T15:11:34.822Z,24.67
2022-11-20T15:14:07.149Z,23.98
2022-11-20T15:16:33.866Z,21.75
2022-11-20T15:19:01.172Z,23.95
2022-11-20T15:21:27.554Z,23.15
2022-11-20T15:23:54.626Z,22.58
2022-11-20T15:26:28.459Z,23.77
2022-11-20T15:28:55.549Z,24.30
2022-11-20T15:31:23.906Z,24.85
2022-11-20T15:33:50.477Z,24.42
2022-11-20T15:36:16.858Z,23.90
2022-11-20T15:38:43.278Z,33.70
2022-11-20T15:41:09.884Z,26.83
2022-11-20T15:43:36.305Z,26.63
2022-11-20T15:46:17.080Z,26.90
2022-11-20T15:48:48.359Z,26.70
2022-11-20T15:51:32.391Z,24.92
2022-11-20T15:53:59.218Z,24.25
2022-11-20T15:56:26.281Z,24.00
2022-11-20T15:58:52.738Z,22.85
2022-11-20T16:01:21.575Z,24.40
2022-11-20T16:03:48.392Z,25.20
2022-11-20T16:06:16.896Z,25.48
2022-11-20T16:08:43.235Z,29.48
2022-11-20T16:11:12.982Z,27.30
2022-11-20T16:13:57.778Z,27.05
2022-11-20T16:16:29.284Z,22.75
2022-11-20T16:18:55.840Z,22.63
2022-11-20T16:21:27.932Z,22.50
2022-11-20T16:23:54.796Z,23.80
2022-11-20T16:26:21.648Z,24.70
2022-11-20T16:28:48.047Z,24.33
2022-11-20T16:31:16.721Z,24.30
2022-11-20T16:33:43.362Z,24.05
2022-11-20T16:36:14.685Z,22.85
2022-11-20T16:38:42.476Z,22.58
2022-11-20T16:41:15.601Z,22.80
2022-11-20T16:43:50.671Z,23.17
2022-11-20T16:46:18.744Z,22.25
2022-11-20T16:48:45.329Z,22.85
2022-11-20T16:51:12.874Z,22.83
2022-11-20T16:53:39.699Z,23.60
2022-11-20T16:56:17.312Z,25.38
2022-11-20T16:58:47.896Z,28.48
2022-11-20T17:01:17.596Z,26.40
2022-11-20T17:03:45.045Z,24.55
2022-11-20T17:06:12.928Z,24.73
2022-11-20T17:08:39.434Z,24.98
2022-11-20T17:11:10.286Z,26.70
2022-11-20T17:13:39.802Z,26.02
2022-11-20T17:16:10.287Z,27.63
2022-11-20T17:18:36.928Z,24.75
2022-11-20T17:21:05.358Z,27.20
2022-11-20T17:23:32.567Z,27.58
2022-11-20T17:26:07.999Z,25.25
2022-11-20T17:28:34.924Z,25.80
2022-11-20T17:31:09.553Z,23.45
2022-11-20T17:33:37.664Z,24.05
2022-11-20T17:36:05.048Z,24.33
2022-11-20T17:38:31.734Z,23.63
2022-11-20T17:41:09.282Z,23.92
2022-11-20T17:43:38.908Z,25.42
2022-11-20T17:46:09.982Z,24.45
2022-11-20T17:48:37.205Z,24.13
2022-11-20T17:51:06.165Z,22.70
2022-11-20T17:53:34.739Z,25.13
2022-11-20T17:56:19.448Z,23.98
2022-11-20T17:58:45.940Z,25.05
2022-11-20T18:01:12.724Z,23.88
2022-11-20T18:03:39.233Z,25.25
2022-11-20T18:06:11.397Z,23.95
2022-11-20T18:08:38.328Z,23.13
2022-11-20T18:11:16.426Z,23.55
2022-11-20T18:14:02.582Z,24.35
2022-11-20T18:16:34.428Z,26.48
2022-11-20T18:19:01.523Z,25.48
2022-11-20T18:21:29.429Z,26.05
2022-11-20T18:23:56.453Z,23.98
2022-11-20T18:26:23.794Z,24.73
2022-11-20T18:28:50.437Z,21.60
2022-11-20T18:31:17.182Z,24.33
2022-11-20T18:33:43.829Z,22.23
2022-11-20T18:36:18.398Z,23.23
2022-11-20T18:38:47.510Z,22.15
2022-11-20T18:41:39.279Z,21.75
2022-11-20T18:44:25.882Z,21.95
2022-11-20T18:46:54.180Z,23.67
2022-11-20T18:49:20.485Z,23.55
2022-11-20T18:51:46.916Z,21.73
2022-11-20T18:54:13.341Z,22.15
2022-11-20T18:56:40.099Z,22.73
2022-11-20T18:59:08.848Z,21.80
2022-11-20T19:01:35.320Z,22.98
2022-11-20T19:04:08.215Z,21.73
2022-11-20T19:06:35.912Z,22.42
2022-11-20T19:09:04.789Z,23.25
2022-11-20T19:11:31.244Z,21.33
2022-11-20T19:13:58.481Z,21.67
2022-11-20T19:16:24.896Z,21.70
2022-11-20T19:18:51.239Z,20.80
2022-11-20T19:21:19.641Z,17.08
2022-11-20T19:23:50.146Z,19.50
2022-11-20T19:26:17.091Z,17.23
2022-11-20T19:28:43.730Z,14.27
2022-11-20T19:31:12.784Z,11.85
2022-11-20T19:33:39.646Z,9.27
2022-11-20T19:36:10.722Z,7.65
2022-11-20T19:38:37.746Z,3.38
2022-11-20T19:41:05.597Z,2.88
2022-11-20T19:43:32.003Z,2.40
2022-11-20T19:45:58.677Z,2.50
2022-11-20T19:48:25.273Z,2.25
2022-11-20T19:50:51.937Z,2.50
2022-11-20T19:53:18.616Z,2.40
2022-11-20T19:55:58.645Z,1.88
2022-11-20T19:58:25.178Z,1.60
2022-11-20T20:00:51.678Z,1.70
2022-11-20T20:03:18.033Z,2.13
2022-11-20T20:05:44.653Z,1.50
2022-11-20T20:08:15.223Z,1.85
2022-11-20T20:10:43.313Z,1.88
2022-11-20T20:13:09.736Z,1.80
2022-11-20T20:15:40.468Z,1.70
2022-11-20T20:18:06.845Z,1.58
2022-11-20T20:20:33.189Z,1.90
2022-11-20T20:22:59.613Z,1.77
2022-11-20T20:25:25.982Z,1.80
2022-11-20T20:27:52.798Z,2.53
2022-11-20T20:30:19.132Z,2.28
2022-11-20T20:32:45.484Z,2.65
2022-11-20T20:35:11.846Z,2.60
2022-11-20T20:37:38.226Z,2.40
2022-11-20T20:40:04.918Z,2.60
2022-11-20T20:42:32.279Z,2.80
2022-11-20T20:45:07.278Z,2.15
2022-11-20T20:47:35.160Z,2.60
2022-11-20T20:50:02.546Z,2.17
2022-11-20T20:52:29.024Z,2.15
2022-11-20T20:54:55.648Z,2.00
2022-11-20T20:57:23.609Z,2.22
2022-11-20T20:59:52.402Z,1.90
2022-11-20T21:02:22.263Z,2.65
2022-11-20T21:04:49.088Z,2.10
2022-11-20T21:07:15.862Z,1.92
2022-11-20T21:09:42.326Z,1.75
2022-11-20T21:12:09.022Z,2.13
2022-11-20T21:14:36.502Z,2.17
2022-11-20T21:17:02.869Z,1.83
2022-11-20T21:19:29.409Z,1.90
2022-11-20T21:22:04.458Z,2.00
2022-11-20T21:24:33.076Z,2.47
2022-11-20T21:27:00.703Z,1.90
2022-11-20T21:29:27.940Z,1.83
2022-11-20T21:31:54.729Z,1.92
2022-11-20T21:34:22.108Z,2.15
2022-11-20T21:36:48.900Z,2.20
2022-11-20T21:39:17.394Z,2.08
2022-11-20T21:41:44.129Z,1.65
2022-11-20T21:47:00.343Z,1.92
2022-11-20T21:49:26.793Z,1.90
2022-11-20T21:51:53.612Z,2.15
2022-11-20T21:54:19.995Z,1.90
2022-11-20T21:56:46.381Z,1.73
2022-11-20T21:59:13.745Z,1.98
2022-11-20T22:01:40.212Z,2.03
2022-11-20T22:04:07.988Z,2.00
2022-11-20T22:06:34.548Z,2.17
2022-11-20T22:09:02.201Z,2.10
2022-11-20T22:11:28.566Z,2.20
2022-11-20T22:14:13.800Z,2.40
2022-11-20T22:16:40.205Z,2.38
2022-11-20T22:19:06.861Z,2.20
2022-11-20T22:21:35.261Z,1.90
2022-11-20T22:24:02.198Z,2.10
2022-11-20T22:26:30.809Z,2.08
2022-11-20T22:28:58.604Z,2.15
2022-11-20T22:31:26.910Z,2.05
2022-11-20T22:33:53.330Z,2.00
2022-11-20T22:36:24.424Z,2.17
2022-11-20T22:38:51.138Z,2.00
2022-11-20T22:41:22.353Z,2.28
2022-11-20T22:43:54.008Z,2.20
2022-11-20T22:46:20.490Z,2.50
2022-11-20T22:48:54.672Z,2.28
2022-11-20T22:51:23.383Z,2.25
2022-11-20T22:53:50.073Z,2.03
2022-11-20T22:56:17.084Z,2.10
2022-11-20T22:58:45.371Z,2.38
2022-11-20T23:01:15.243Z,2.05
2022-11-20T23:03:43.442Z,2.30
2022-11-20T23:06:10.512Z,1.77
2022-11-20T23:08:37.663Z,2.03
2022-11-20T23:11:12.425Z,2.05
2022-11-20T23:13:40.017Z,2.20
2022-11-20T23:16:08.187Z,2.20
2022-11-20T23:18:35.443Z,1.70
2022-11-20T23:21:08.245Z,1.70
2022-11-20T23:23:34.617Z,2.33
2022-11-20T23:26:06.174Z,2.30
2022-11-20T23:28:32.557Z,1.92
2022-11-20T23:30:58.967Z,2.25
2022-11-20T23:33:25.598Z,2.25
2022-11-20T23:35:52.153Z,2.22
2022-11-20T23:38:18.881Z,2.47
2022-11-20T23:40:48.940Z,2.03
2022-11-20T23:43:16.331Z,2.65
2022-11-20T23:45:44.468Z,2.53
2022-11-20T23:48:11.445Z,2.30
2022-11-20T23:50:37.844Z,2.75
2022-11-20T23:53:04.654Z,2.58
2022-11-20T23:55:31.112Z,2.25
2022-11-20T23:57:57.574Z,2.38
